Balmat, New York
Current Conditions -  °F | °C
As of 8:09 PM on Saturday 22 Nov 2014 (Local Time) from KGTB Reporting Station
Overcast Overcast  
Wind Chill: 31°   Ceiling: 900
Heat Index: 39°   Visibility: 10mi
Dew Point: 37°   Wind: 15mph
Humidity: 93%   Direction: 230°SW
Pressure: 29.94"   Gusts: 23mph
Location:  44.2483°N, 75.3953°W
Report Text: KGTB 230109Z AUTO 23013G20KT 10SM BKN009 OVC014 04/03 A2994 RMK AO2 RAE0056DZB0056E0108 CIG 009V012
Loading
Personal Weather Stations






























Interactive Weather Map New forecast layout! Learn more

10-Day Weather Forecast

Advertisements
Track Severe Weather on mobile